Time;durP1;ratioP1;P1;durP2;ratioP2;P2;SDS_P1;SDS_P2;PMS_P1;PMS_P2;Temp;Humidity;BMP_temperature;BMP_pressure;BME280_temperature;BME280_humidity;BME280_pressure;Samples;Min_cycle;Max_cycle;Signal;HPM_P1;HPM_P2
2021/03/20 00:02:25;;;;;;;20.35;7.55;;;;;;;-2.46;64.85;101063.52;2273394;78;33975;-66
2021/03/20 00:05:31;;;;;;;19.80;7.08;;;;;;;-2.47;64.91;101064.37;2273765;78;29415;-63
2021/03/20 00:08:36;;;;;;;16.62;6.65;;;;;;;-2.49;64.92;101059.12;2273923;78;28957;-64
2021/03/20 00:11:45;;;;;;;16.23;7.87;;;;;;;-2.50;64.85;101066.98;2273711;78;28935;-66
2021/03/20 00:14:54;;;;;;;22.17;8.68;;;;;;;-2.52;64.92;101066.93;2273976;78;32032;-73
2021/03/20 00:18:03;;;;;;;29.92;10.18;;;;;;;-2.51;65.12;101067.39;2273708;78;33959;-61
2021/03/20 00:21:10;;;;;;;22.58;9.88;;;;;;;-2.51;65.08;101071.33;2273872;77;29707;-66
2021/03/20 00:24:15;;;;;;;22.22;10.10;;;;;;;-2.48;65.24;101067.44;2273454;78;27846;-71
2021/03/20 00:27:20;;;;;;;17.40;6.87;;;;;;;-2.48;65.13;101071.37;2250352;78;29682;-67
2021/03/20 00:30:30;;;;;;;15.80;7.35;;;;;;;-2.50;65.07;101075.72;2274220;78;32018;-68
2021/03/20 00:33:37;;;;;;;16.62;7.50;;;;;;;-2.52;65.04;101078.73;2273550;78;33949;-63
2021/03/20 00:36:43;;;;;;;16.50;6.62;;;;;;;-2.54;64.89;101080.89;2273862;78;29727;-65
2021/03/20 00:39:53;;;;;;;17.25;7.12;;;;;;;-2.63;64.96;101078.55;2273770;78;27940;-61
2021/03/20 00:42:57;;;;;;;17.87;6.67;;;;;;;-2.64;65.15;101079.84;2273451;78;28793;-72
2021/03/20 00:46:08;;;;;;;15.70;5.67;;;;;;;-2.62;65.18;101087.32;2273713;78;31984;-70
2021/03/20 00:49:16;;;;;;;15.48;5.60;;;;;;;-2.62;65.18;101077.69;2273776;77;33168;-72
2021/03/20 00:52:21;;;;;;;16.32;6.65;;;;;;;-2.61;65.13;101086.47;2273529;77;29734;-66
2021/03/20 00:55:27;;;;;;;18.42;6.95;;;;;;;-2.64;65.16;101085.96;2274166;78;27896;-70
2021/03/20 00:58:41;;;;;;;15.30;6.47;;;;;;;-2.71;65.11;101075.34;2273655;78;29678;-74
2021/03/20 01:01:47;;;;;;;15.70;6.55;;;;;;;-2.72;65.21;101085.38;2272490;78;32033;-76
2021/03/20 01:04:56;;;;;;;12.50;6.15;;;;;;;-2.76;65.13;101089.28;2273034;77;33960;-68
2021/03/20 01:08:06;;;;;;;18.07;6.47;;;;;;;-2.78;65.32;101084.84;2272923;78;29724;-73
2021/03/20 01:11:19;;;;;;;16.42;6.67;;;;;;;-2.82;65.30;101081.73;2272216;78;27730;-68
2021/03/20 01:14:25;;;;;;;21.97;8.78;;;;;;;-2.85;65.33;101090.84;2272017;78;29689;-69
2021/03/20 01:17:34;;;;;;;18.70;8.13;;;;;;;-2.93;65.26;101085.47;2271996;78;32007;-61
2021/03/20 01:20:42;;;;;;;26.68;7.75;;;;;;;-3.00;65.34;101089.72;2272035;78;33158;-63
2021/03/20 01:23:47;;;;;;;20.02;7.28;;;;;;;-3.07;65.42;101090.03;2274323;78;29672;-61
2021/03/20 01:26:55;;;;;;;20.60;7.25;;;;;;;-3.11;65.55;101089.50;2272537;78;27945;-62
2021/03/20 01:30:05;;;;;;;22.82;9.23;;;;;;;-3.14;65.57;101092.06;2272880;77;29688;-62
2021/03/20 01:33:12;;;;;;;20.15;8.03;;;;;;;-3.16;65.72;101096.38;2272975;78;31092;-62
2021/03/20 01:36:21;;;;;;;22.05;8.40;;;;;;;-3.18;65.73;101096.78;2272939;77;34126;-61
2021/03/20 01:39:32;;;;;;;23.62;8.95;;;;;;;-3.20;65.86;101093.23;2273047;78;29745;-61
2021/03/20 01:42:47;;;;;;;25.08;9.33;;;;;;;-3.26;65.94;101092.70;2273136;78;27919;-61
2021/03/20 01:45:52;;;;;;;26.95;10.60;;;;;;;-3.31;66.04;101091.74;2273045;78;28792;-61
2021/03/20 01:48:59;;;;;;;25.10;10.82;;;;;;;-3.36;66.16;101102.55;2277162;77;32102;-64
2021/03/20 01:52:26;;;;;;;21.55;8.93;;;;;;;-3.39;66.36;101098.11;2280093;77;34020;-63
2021/03/20 01:55:37;;;;;;;24.98;9.88;;;;;;;-3.38;66.44;101101.63;2280384;77;29729;-64
2021/03/20 01:58:49;;;;;;;20.08;9.48;;;;;;;-3.42;66.47;101103.31;2280439;77;27922;-62
2021/03/20 02:02:04;;;;;;;32.10;11.33;;;;;;;-3.43;66.56;101104.56;2273988;77;29002;-62
2021/03/20 02:05:14;;;;;;;28.27;10.18;;;;;;;-3.42;66.49;101105.03;2277050;77;32015;-61
2021/03/20 02:08:19;;;;;;;33.80;12.28;;;;;;;-3.45;66.47;101115.02;2277834;77;33104;-69
2021/03/20 02:11:38;;;;;;;32.83;12.70;;;;;;;-3.46;66.54;101119.80;2276414;77;29747;-61
2021/03/20 02:15:01;;;;;;;37.93;14.43;;;;;;;-3.48;66.60;101125.43;2279882;77;27930;-61
2021/03/20 02:18:21;;;;;;;34.18;12.70;;;;;;;-3.52;66.59;101124.49;2280965;77;28798;-60
2021/03/20 02:21:42;;;;;;;34.58;12.60;;;;;;;-3.56;66.80;101125.27;2279924;77;31057;-69
2021/03/20 02:24:56;;;;;;;35.25;13.60;;;;;;;-3.56;66.86;101129.20;2278113;77;33134;-61
2021/03/20 02:28:37;;;;;;;33.95;13.35;;;;;;;-3.60;66.82;101124.73;2281023;77;27772;-65
2021/03/20 02:32:21;;;;;;;35.43;14.53;;;;;;;-3.62;66.94;101129.05;2279890;77;27918;-72
2021/03/20 02:36:06;;;;;;;34.27;12.63;;;;;;;-3.61;66.95;101133.88;2280277;77;29690;-67
2021/03/20 02:39:49;;;;;;;35.30;12.68;;;;;;;-3.63;67.07;101140.38;2279461;77;27944;-60
2021/03/20 02:43:02;;;;;;;31.87;12.43;;;;;;;-3.66;67.01;101135.97;2280170;77;33975;-61
2021/03/20 02:46:40;;;;;;;30.35;11.75;;;;;;;-3.67;67.06;101138.13;2278904;77;29384;-61
2021/03/20 02:50:04;;;;;;;30.52;11.78;;;;;;;-3.67;67.04;101139.44;2280276;76;27966;-61
2021/03/20 02:53:43;;;;;;;28.47;11.25;;;;;;;-3.71;67.12;101140.20;2280304;77;28792;-61
2021/03/20 02:57:09;;;;;;;30.85;12.55;;;;;;;-3.70;67.08;101134.56;2282813;77;32042;-63
2021/03/20 03:00:31;;;;;;;27.10;11.43;;;;;;;-3.72;66.97;101146.73;2167815;80;33983;-60
2021/03/20 03:03:40;;;;;;;29.05;11.73;;;;;;;-3.76;67.06;101143.16;2123832;83;28843;-60
2021/03/20 03:07:04;;;;;;;32.15;10.38;;;;;;;-3.77;67.02;101141.80;2155285;82;28017;-64
2021/03/20 03:10:35;;;;;;;24.60;10.08;;;;;;;-3.78;67.09;101142.24;2101916;83;28803;-65
2021/03/20 03:14:04;;;;;;;22.57;10.13;;;;;;;-3.80;67.03;101147.87;2249650;77;37049;-65
2021/03/20 03:17:13;;;;;;;27.30;9.93;;;;;;;-3.85;67.18;101145.55;2203297;80;28041;-63
2021/03/20 03:20:35;;;;;;;27.87;9.88;;;;;;;-3.88;67.14;101151.61;2150120;80;28826;-63
2021/03/20 03:23:43;;;;;;;25.62;9.70;;;;;;;-3.90;67.22;101153.75;2215576;80;31123;-62
2021/03/20 03:26:55;;;;;;;29.30;10.23;;;;;;;-3.94;67.19;101151.45;2214217;80;29402;-62
2021/03/20 03:29:59;;;;;;;19.75;8.65;;;;;;;-3.98;67.25;101153.13;2215682;80;29407;-64
2021/03/20 03:33:28;;;;;;;20.85;8.75;;;;;;;-3.99;67.23;101156.59;2213098;80;27927;-62
2021/03/20 03:36:39;;;;;;;22.40;9.45;;;;;;;-3.99;67.24;101150.48;2177251;81;29697;-65
2021/03/20 03:39:55;;;;;;;20.85;8.25;;;;;;;-4.02;67.32;101155.64;2213017;80;32124;-64
2021/03/20 03:43:07;;;;;;;23.00;8.90;;;;;;;-4.03;67.28;101165.21;2174473;81;33986;-62
2021/03/20 03:46:27;;;;;;;21.93;9.30;;;;;;;-4.04;67.33;101162.57;2212984;80;28856;-67
2021/03/20 03:49:30;;;;;;;20.50;8.55;;;;;;;-4.06;67.32;101162.95;2185654;80;27954;-65
2021/03/20 03:52:41;;;;;;;17.85;8.55;;;;;;;-4.08;67.46;101155.48;2171804;80;27925;-62
2021/03/20 03:55:55;;;;;;;18.90;8.83;;;;;;;-4.07;67.36;101165.11;2174655;81;32135;-61
2021/03/20 03:59:17;;;;;;;26.07;9.80;;;;;;;-4.10;67.31;101162.41;2212934;80;34182;-65
2021/03/20 04:03:07;;;;;;;22.00;8.88;;;;;;;-4.12;67.31;101164.56;2172397;81;28937;-67
2021/03/20 04:06:44;;;;;;;20.02;9.23;;;;;;;-4.14;67.19;101170.61;2174888;81;27934;-61
2021/03/20 04:10:38;;;;;;;22.17;8.68;;;;;;;-4.15;67.32;101170.16;2212984;80;29719;-67
2021/03/20 04:14:07;;;;;;;25.60;9.80;;;;;;;-4.16;67.28;101172.30;2172633;81;31148;-71
2021/03/20 04:17:22;;;;;;;24.32;10.00;;;;;;;-4.17;67.28;101174.45;2174147;81;33973;-62
2021/03/20 04:20:45;;;;;;;20.72;8.28;;;;;;;-4.21;67.10;101178.73;2173345;81;29751;-70
2021/03/20 04:24:27;;;;;;;23.18;9.20;;;;;;;-4.26;67.05;101185.58;2176593;81;27690;-68
2021/03/20 04:27:35;;;;;;;22.30;9.40;;;;;;;-4.29;67.22;101182.87;2136821;83;29805;-65
2021/03/20 04:31:10;;;;;;;21.52;8.93;;;;;;;-4.31;67.19;101184.16;2136451;83;32407;-72
2021/03/20 04:34:58;;;;;;;26.77;9.45;;;;;;;-4.32;67.21;101184.12;2039866;87;33990;-71
2021/03/20 04:41:27;;;;;;;25.40;10.10;;;;;;;-4.31;67.23;101192.44;2204922;80;37412;-63
2021/03/20 04:44:29;;;;;;;;;;;;;;;-4.39;67.23;101190.03;2177683;81;27596;-71
2021/03/20 04:47:39;;;;;;;23.12;10.28;;;;;;;-4.40;67.14;101194.80;2175029;81;28806;-70
2021/03/20 04:50:50;;;;;;;37.45;15.30;;;;;;;-4.42;67.19;101204.80;2172495;81;32055;-67
2021/03/20 04:54:08;;;;;;;84.92;31.62;;;;;;;-4.45;67.08;101203.41;2174995;81;33976;-77
2021/03/20 04:57:32;;;;;;;86.95;37.85;;;;;;;-4.48;67.16;101200.73;2174808;81;29425;-63
2021/03/20 05:04:23;;;;;;;56.70;30.00;;;;;;;-4.48;67.09;101199.83;2272056;77;32916;-67
2021/03/20 05:07:29;;;;;;;41.37;20.65;;;;;;;-4.44;67.10;101200.38;2187291;81;27794;-67
2021/03/20 05:10:43;;;;;;;42.55;17.95;;;;;;;-4.39;67.04;101204.42;2152342;81;29696;-76
2021/03/20 05:14:14;;;;;;;30.52;14.75;;;;;;;-4.40;67.11;101209.19;2257392;78;31148;-69
2021/03/20 05:17:21;;;;;;;28.05;13.48;;;;;;;-4.42;67.08;101213.08;2260418;78;34040;-66
2021/03/20 05:20:30;;;;;;;30.15;12.88;;;;;;;-4.43;67.25;101213.92;2259580;78;28543;-71
2021/03/20 05:23:36;;;;;;;31.68;12.30;;;;;;;-4.41;67.35;101225.31;2256266;78;28089;-69
2021/03/20 05:26:43;;;;;;;25.08;10.28;;;;;;;-4.39;67.45;101229.27;2260343;78;29683;-67
2021/03/20 05:29:46;;;;;;;23.42;10.70;;;;;;;-4.38;67.53;101231.04;2260298;78;31083;-67
2021/03/20 05:32:54;;;;;;;31.85;10.35;;;;;;;-4.40;67.55;101228.80;2258992;78;28520;-67
2021/03/20 05:35:57;;;;;;;28.95;10.25;;;;;;;-4.40;67.69;101235.34;2228221;78;29799;-66
2021/03/20 05:39:07;;;;;;;26.02;10.60;;;;;;;-4.37;67.84;101236.73;2260207;78;27993;-68
2021/03/20 05:42:56;;;;;;;21.42;9.68;;;;;;;-4.36;67.92;101238.51;2261044;78;28822;-66
2021/03/20 05:46:27;;;;;;;20.45;9.18;;;;;;;-4.33;68.09;101239.91;2260209;78;32030;-67
2021/03/20 05:50:25;;;;;;;18.70;9.50;;;;;;;-4.31;68.20;101245.62;2260348;78;33959;-67
2021/03/20 05:53:58;;;;;;;24.67;10.00;;;;;;;-4.28;68.29;101247.02;2260301;78;29768;-67
2021/03/20 05:57:32;;;;;;;25.23;10.53;;;;;;;-4.25;68.48;101251.88;2260413;78;27639;-67
2021/03/20 06:01:03;;;;;;;26.02;10.72;;;;;;;-4.21;68.63;101249.38;2258221;78;27648;-66
2021/03/20 06:04:31;;;;;;;25.97;11.43;;;;;;;-4.15;68.66;101253.87;2260176;78;32035;-65
2021/03/20 06:07:47;;;;;;;28.40;11.15;;;;;;;-4.09;68.80;101257.07;2260182;78;33171;-65
2021/03/20 06:11:01;;;;;;;31.90;12.82;;;;;;;-3.96;68.96;101263.08;2260009;78;29730;-67
2021/03/20 06:14:31;;;;;;;31.55;15.88;;;;;;;-3.83;69.16;101266.90;2260108;78;27714;-65
2021/03/20 06:18:03;;;;;;;21.87;9.33;;;;;;;-3.63;69.21;101267.82;2258548;78;29851;-64
2021/03/20 06:21:12;;;;;;;19.73;8.70;;;;;;;-3.34;69.16;101267.62;2258797;78;32019;-66
2021/03/20 06:24:54;;;;;;;18.45;8.75;;;;;;;-2.97;68.94;101264.08;2259722;78;33125;-66
2021/03/20 06:27:59;;;;;;;18.55;7.92;;;;;;;-2.64;68.58;101270.01;2260042;78;28862;-65
2021/03/20 06:31:24;;;;;;;16.97;7.72;;;;;;;-2.29;68.45;101272.00;2260119;78;27837;-66
2021/03/20 06:37:56;;;;;;;22.07;9.05;;;;;;;-1.73;68.00;101277.34;2105541;84;31161;-66
2021/03/20 06:41:35;;;;;;;19.85;10.28;;;;;;;-1.46;67.70;101278.23;2104903;84;33779;-67
2021/03/20 06:44:51;;;;;;;16.67;8.23;;;;;;;-1.14;67.43;101279.59;2105506;84;29693;-65
2021/03/20 06:51:44;;;;;;;22.48;9.00;;;;;;;-0.81;66.79;101284.41;2300700;77;27896;-64
2021/03/20 06:54:59;;;;;;;16.80;7.53;;;;;;;-0.69;66.82;101280.20;2301113;77;29693;-64
2021/03/20 06:58:28;;;;;;;16.42;8.33;;;;;;;-0.32;66.65;101277.97;2301189;77;31147;-65
2021/03/20 07:01:43;;;;;;;19.45;7.65;;;;;;;-0.01;65.83;101269.97;2299003;77;33108;-65
2021/03/20 07:05:28;;;;;;;20.62;8.93;;;;;;;0.26;65.62;101271.53;2301504;77;28618;-64
2021/03/20 07:09:16;;;;;;;;;;;;;;;;;;;;;
2021/03/20 07:12:31;;;;;;;15.33;8.57;;;;;;;0.30;64.88;101274.20;2340323;76;27968;-67
2021/03/20 07:15:36;;;;;;;16.37;7.97;;;;;;;0.47;65.22;101271.27;2230754;79;27757;-70
2021/03/20 07:18:45;;;;;;;15.80;7.80;;;;;;;0.67;64.39;101269.62;2229551;79;29797;-71
2021/03/20 07:22:05;;;;;;;16.35;8.90;;;;;;;0.72;64.07;101274.52;2230494;79;31136;-71
2021/03/20 07:25:21;;;;;;;13.43;7.58;;;;;;;0.77;63.56;101274.53;2204293;79;33643;-69
2021/03/20 07:32:00;;;;;;;19.73;7.73;;;;;;;0.51;63.45;101287.11;2337023;76;27888;-65
2021/03/20 07:35:21;;;;;;;78.52;15.03;;;;;;;0.43;63.35;101287.47;2301928;77;27399;-63
2021/03/20 07:38:29;;;;;;;15.00;7.00;;;;;;;0.37;63.34;101298.85;2301663;77;29688;-68
2021/03/20 07:42:00;;;;;;;15.10;7.12;;;;;;;0.36;63.03;101294.89;2301165;77;32034;-65
2021/03/20 07:45:23;;;;;;;17.25;8.90;;;;;;;0.22;62.70;101296.98;2301171;77;34059;-64
2021/03/20 07:48:36;;;;;;;17.37;8.77;;;;;;;0.05;62.87;101302.07;2298732;77;28536;-69
2021/03/20 07:56:36;;;;;;;18.95;8.65;;;;;;;0.06;62.67;101307.80;2301427;77;27851;-63
2021/03/20 07:59:55;;;;;;;15.78;7.47;;;;;;;0.29;62.53;101308.00;2299975;77;32037;-64
2021/03/20 08:03:21;;;;;;;19.05;7.00;;;;;;;0.71;62.75;101298.25;2298663;77;33982;-63
2021/03/20 08:06:35;;;;;;;36.88;7.65;;;;;;;0.95;62.31;101307.19;2299788;77;29746;-61
2021/03/20 08:09:49;;;;;;;22.87;8.70;;;;;;;1.16;61.56;101307.78;2298738;77;27859;-66
2021/03/20 08:13:04;;;;;;;18.02;9.60;;;;;;;1.41;61.88;101306.11;2302483;77;28811;-63
2021/03/20 08:16:07;;;;;;;33.58;12.53;;;;;;;1.67;61.97;101300.93;2301465;77;32097;-63
2021/03/20 08:19:15;;;;;;;18.25;8.43;;;;;;;1.92;61.69;101299.70;2301385;77;33876;-68
2021/03/20 08:22:40;;;;;;;16.37;9.70;;;;;;;2.12;61.36;101299.72;2301298;77;28861;-68
2021/03/20 08:26:09;;;;;;;19.60;10.50;;;;;;;2.21;61.20;101301.95;2301516;77;27930;-70
2021/03/20 08:29:47;;;;;;;14.05;8.30;;;;;;;2.25;60.44;101299.30;2301185;77;29634;-63
2021/03/20 08:33:45;;;;;;;16.95;9.05;;;;;;;2.26;60.70;101307.69;2292904;77;27589;-62
2021/03/20 08:37:40;;;;;;;20.90;8.55;;;;;;;2.17;60.08;101307.66;2305494;77;33967;-76
2021/03/20 08:41:09;;;;;;;17.42;8.75;;;;;;;2.05;60.50;101311.61;2305402;77;29747;-65
2021/03/20 08:49:21;;;;;;;15.10;7.58;;;;;;;2.24;60.32;101316.05;2304826;77;27601;-64
2021/03/20 08:52:36;;;;;;;13.70;7.90;;;;;;;2.16;60.08;101322.20;2305247;77;32019;-66
2021/03/20 08:56:06;;;;;;;47.17;11.78;;;;;;;1.97;60.02;101323.06;2304633;77;33233;-74
2021/03/20 08:59:19;;;;;;;38.65;18.73;;;;;;;1.88;60.50;101330.08;2276258;77;28667;-67
2021/03/20 09:02:36;;;;;;;15.20;7.85;;;;;;;1.87;60.39;101326.53;2279953;77;27940;-76
2021/03/20 09:05:47;;;;;;;13.70;7.17;;;;;;;1.90;60.10;101329.19;2302056;77;29710;-66
2021/03/20 09:08:54;;;;;;;11.30;6.17;;;;;;;1.91;60.06;101332.28;2303038;77;32037;-63
2021/03/20 09:12:28;;;;;;;19.67;6.85;;;;;;;2.02;59.93;101331.41;2304934;77;34000;-64
2021/03/20 09:15:33;;;;;;;25.00;7.92;;;;;;;2.22;59.58;101331.48;2304734;77;28829;-62
2021/03/20 09:18:39;;;;;;;23.45;12.28;;;;;;;2.26;59.28;101329.25;2305276;77;27865;-64
2021/03/20 09:21:44;;;;;;;28.98;12.23;;;;;;;2.24;59.46;101329.27;2304897;77;29726;-64
2021/03/20 09:24:57;;;;;;;9.80;5.63;;;;;;;2.14;59.42;101331.47;2280016;77;31110;-73
2021/03/20 09:28:17;;;;;;;11.48;6.00;;;;;;;2.09;59.06;101334.53;2301999;77;33959;-65
2021/03/20 09:31:37;;;;;;;13.05;6.75;;;;;;;2.07;58.92;101334.96;2302082;77;28850;-68
2021/03/20 09:34:56;;;;;;;13.72;6.33;;;;;;;2.07;59.42;101345.08;2302909;77;27916;-65
2021/03/20 09:38:12;;;;;;;13.03;6.53;;;;;;;2.04;58.52;101349.06;2302088;77;28827;-66
2021/03/20 09:41:33;;;;;;;19.87;6.97;;;;;;;1.96;57.78;101352.11;2302835;77;32158;-65
2021/03/20 09:44:42;;;;;;;103.83;15.98;;;;;;;1.87;58.05;101350.77;2303160;77;33962;-67
2021/03/20 09:47:51;;;;;;;16.10;8.03;;;;;;;1.83;58.32;101349.85;2276625;77;28849;-68
2021/03/20 09:50:57;;;;;;;14.43;7.40;;;;;;;1.89;58.77;101355.63;2275824;77;27980;-65
2021/03/20 09:54:41;;;;;;;12.13;6.47;;;;;;;2.04;58.71;101348.16;2301896;77;29711;-65
2021/03/20 09:57:53;;;;;;;11.30;5.47;;;;;;;2.19;58.47;101350.84;2302216;77;32031;-65
2021/03/20 10:01:02;;;;;;;39.10;8.63;;;;;;;2.25;58.27;101349.55;2301797;77;33897;-68
2021/03/20 10:04:28;;;;;;;16.62;8.88;;;;;;;2.21;58.07;101353.05;2302044;77;28877;-66
2021/03/20 10:07:39;;;;;;;14.60;6.22;;;;;;;2.06;58.04;101364.48;2304624;77;27949;-68
2021/03/20 10:10:52;;;;;;;12.37;5.33;;;;;;;1.89;57.17;101367.06;2277994;77;28781;-66
2021/03/20 10:14:15;;;;;;;9.60;4.90;;;;;;;1.80;57.11;101367.91;2301703;77;27436;-67
2021/03/20 10:17:34;;;;;;;12.15;5.75;;;;;;;1.72;57.26;101365.69;2223278;79;30286;-65
2021/03/20 10:20:47;;;;;;;14.93;6.15;;;;;;;1.72;56.95;101362.15;2221973;79;29497;-66
2021/03/20 10:24:20;;;;;;;13.60;7.97;;;;;;;1.64;55.22;101374.00;2224438;79;27930;-75
2021/03/20 10:27:47;;;;;;;12.03;5.85;;;;;;;1.57;56.38;101378.83;2224222;79;29858;-68
2021/03/20 10:31:07;;;;;;;14.90;5.55;;;;;;;1.58;56.85;101384.11;2220012;79;31344;-67
2021/03/20 10:34:17;;;;;;;13.70;6.20;;;;;;;1.66;56.55;101381.05;2217612;80;33977;-65
2021/03/20 10:37:33;;;;;;;11.28;5.17;;;;;;;1.77;55.46;101386.84;2217639;80;29825;-66
2021/03/20 10:40:43;;;;;;;10.70;5.37;;;;;;;1.81;56.38;101379.37;2217697;80;28151;-65
2021/03/20 10:43:56;;;;;;;8.60;5.28;;;;;;;1.99;56.47;101372.40;2219050;80;29713;-65
2021/03/20 10:47:27;;;;;;;11.18;5.17;;;;;;;2.18;56.54;101374.19;2218071;80;32114;-65
2021/03/20 10:50:53;;;;;;;7.43;4.73;;;;;;;2.36;56.39;101364.53;2293462;77;27916;-63
2021/03/20 10:54:34;;;;;;;11.63;5.58;;;;;;;2.43;55.87;101360.58;2239923;78;27961;-64
2021/03/20 10:57:41;;;;;;;9.30;5.08;;;;;;;2.52;55.07;101363.67;2255335;78;29804;-62
2021/03/20 11:00:48;;;;;;;25.88;6.80;;;;;;;2.48;55.01;101355.73;2255121;78;32107;-66
2021/03/20 11:03:58;;;;;;;35.58;6.05;;;;;;;2.40;55.24;101355.27;2256007;78;34063;-62
2021/03/20 11:07:09;;;;;;;11.35;5.53;;;;;;;2.30;54.46;101368.05;2255371;78;29543;-63
2021/03/20 11:10:28;;;;;;;15.28;6.83;;;;;;;2.07;54.10;101368.86;2254725;78;28212;-61
2021/03/20 11:13:36;;;;;;;12.20;5.08;;;;;;;1.93;54.66;101369.27;2255053;78;28784;-71
2021/03/20 11:16:52;;;;;;;12.73;6.80;;;;;;;1.96;55.14;101358.29;2253323;78;32052;-62
2021/03/20 11:20:20;;;;;;;31.17;7.87;;;;;;;2.07;54.47;101355.65;2254449;78;33993;-60
2021/03/20 11:23:44;;;;;;;9.70;4.10;;;;;;;2.19;54.20;101345.55;2255010;78;28000;-62
2021/03/20 11:26:53;;;;;;;16.60;4.80;;;;;;;2.25;54.13;101346.00;2254970;78;27903;-62
2021/03/20 11:30:08;;;;;;;41.75;22.60;;;;;;;2.31;54.23;101347.34;2255223;78;29723;-64
2021/03/20 11:33:22;;;;;;;287.98;36.38;;;;;;;2.39;54.31;101348.25;2251770;78;27957;-65
2021/03/20 11:36:30;;;;;;;12.03;5.15;;;;;;;2.41;54.71;101345.14;2257138;78;33677;-63
2021/03/20 11:39:39;;;;;;;7.05;4.90;;;;;;;2.50;54.54;101335.01;2254943;78;29753;-62
2021/03/20 11:42:51;;;;;;;6.97;3.65;;;;;;;2.66;53.97;101325.75;2255190;78;27909;-60
2021/03/20 11:46:15;;;;;;;3.92;2.70;;;;;;;2.85;52.06;101327.96;2252799;78;28818;-63
2021/03/20 11:49:52;;;;;;;199.27;23.57;;;;;;;2.89;51.89;101315.17;2271575;76;39209;-58
2021/03/20 11:53:01;;;;;;;48.50;7.22;;;;;;;3.08;52.79;101317.34;2249672;78;27971;-63
2021/03/20 11:56:25;;;;;;;7.35;2.98;;;;;;;3.22;51.65;101314.66;2254787;78;29831;-66
2021/03/20 11:59:45;;;;;;;7.75;3.08;;;;;;;3.22;49.64;101306.72;2255107;78;31135;-61
2021/03/20 12:02:56;;;;;;;17.80;9.38;;;;;;;3.16;49.62;101309.38;2256102;78;33981;-62
2021/03/20 12:06:22;;;;;;;21.52;12.35;;;;;;;3.02;50.15;101297.48;2203884;79;27912;-64
2021/03/20 12:09:35;;;;;;;37.35;15.88;;;;;;;2.93;51.61;101298.84;2230707;79;27949;-61
2021/03/20 12:12:56;;;;;;;38.55;17.02;;;;;;;2.94;52.26;101303.25;2230683;79;29701;-62
2021/03/20 12:16:41;;;;;;;27.73;11.17;;;;;;;3.09;52.60;101293.95;2245794;78;28071;-62
2021/03/20 12:20:07;;;;;;;29.23;12.33;;;;;;;3.14;52.33;101293.92;2213003;80;27918;-66
2021/03/20 12:23:31;;;;;;;20.17;9.18;;;;;;;3.25;53.04;101289.93;2213361;80;28026;-64
2021/03/20 12:26:39;;;;;;;10.18;4.90;;;;;;;3.40;52.90;101270.01;2213660;80;32072;-65
2021/03/20 12:29:50;;;;;;;12.30;6.83;;;;;;;3.49;51.08;101275.25;2142853;81;33198;-67
2021/03/20 12:33:26;;;;;;;10.50;5.62;;;;;;;3.57;50.98;101269.91;2127720;81;29707;-61
2021/03/20 12:36:50;;;;;;;6.97;4.20;;;;;;;3.59;51.13;101275.23;2175432;81;27987;-62
2021/03/20 12:39:59;;;;;;;52.60;22.52;;;;;;;3.49;50.63;101269.95;2175516;81;29190;-58
2021/03/20 12:43:05;;;;;;;24.02;8.80;;;;;;;3.38;51.09;101274.89;2174413;81;32056;-65
2021/03/20 12:46:11;;;;;;;8.93;5.12;;;;;;;3.21;52.04;101268.31;2175188;81;33797;-60
2021/03/20 12:49:22;;;;;;;25.70;12.15;;;;;;;3.15;51.91;101273.19;2168810;81;29708;-71
2021/03/20 12:52:31;;;;;;;10.88;5.50;;;;;;;3.09;52.46;101266.58;2176254;81;27700;-61
2021/03/20 12:55:36;;;;;;;10.40;5.08;;;;;;;3.04;51.91;101268.82;2169180;81;29900;-59
2021/03/20 12:58:49;;;;;;;13.05;5.97;;;;;;;2.98;51.46;101267.95;2174437;81;32120;-62
2021/03/20 13:01:56;;;;;;;14.58;8.28;;;;;;;2.89;51.59;101261.78;2174393;81;33907;-66
2021/03/20 13:05:07;;;;;;;13.78;5.55;;;;;;;2.84;51.60;101266.20;2174784;81;29751;-66
2021/03/20 13:08:13;;;;;;;12.98;5.95;;;;;;;2.78;51.74;101256.97;2174783;81;27931;-64
2021/03/20 13:11:25;;;;;;;11.43;5.92;;;;;;;2.74;51.87;101257.84;2175210;81;29717;-65
2021/03/20 13:14:35;;;;;;;12.58;8.23;;;;;;;2.70;51.21;101246.40;2099618;83;32460;-60
2021/03/20 13:17:45;;;;;;;9.23;4.03;;;;;;;2.73;52.10;101239.75;2073918;85;34146;-67
2021/03/20 13:21:01;;;;;;;9.73;6.05;;;;;;;2.82;51.82;101240.17;2039758;86;29997;-59
2021/03/20 13:24:09;;;;;;;8.20;4.53;;;;;;;2.90;51.27;101236.19;2017005;87;28075;-64
2021/03/20 13:27:18;;;;;;;11.28;7.97;;;;;;;2.89;50.40;101241.07;2040536;86;29699;-60
2021/03/20 13:30:32;;;;;;;11.70;4.33;;;;;;;2.93;51.06;101245.91;2073567;85;31092;-61
2021/03/20 13:33:40;;;;;;;5.97;3.52;;;;;;;2.98;50.58;101236.20;2075499;85;34099;-66
2021/03/20 13:36:49;;;;;;;7.97;3.58;;;;;;;2.94;50.58;101233.98;2073263;85;28862;-63
2021/03/20 13:39:56;;;;;;;7.87;3.80;;;;;;;2.91;50.74;101246.34;2071206;85;27956;-61
2021/03/20 13:43:06;;;;;;;8.45;3.67;;;;;;;2.83;50.40;101244.59;2040553;86;29712;-60
2021/03/20 13:46:13;;;;;;;8.43;5.25;;;;;;;2.71;50.02;101241.97;2041165;86;32161;-59
2021/03/20 13:49:21;;;;;;;5.97;3.70;;;;;;;2.67;50.45;101249.05;2043040;86;33994;-61
2021/03/20 13:52:27;;;;;;;9.23;4.20;;;;;;;2.62;50.19;101243.33;1984866;88;28929;-60
2021/03/20 13:55:40;;;;;;;8.73;4.53;;;;;;;2.55;50.12;101242.00;2068686;85;27883;-66
2021/03/20 13:58:46;;;;;;;10.40;5.03;;;;;;;2.57;50.37;101237.59;2068787;85;29706;-60
2021/03/20 14:01:53;;;;;;;12.18;6.78;;;;;;;2.65;50.59;101236.71;2067991;85;31159;-62
2021/03/20 14:05:02;;;;;;;;;;;;;;;2.73;50.59;101239.75;2069992;85;33966;-59
2021/03/20 14:08:11;;;;;;;9.25;5.12;;;;;;;2.80;50.36;101234.03;2067878;85;28865;-66
2021/03/20 14:11:17;;;;;;;;;;;;;;;2.91;50.46;101236.63;2071446;85;27993;-63
2021/03/20 14:14:26;;;;;;;6.70;4.17;;;;;;;2.99;49.63;101232.20;2052220;84;28913;-60
2021/03/20 14:17:30;;;;;;;8.30;3.37;;;;;;;2.96;49.57;101225.59;2105324;84;32044;-62
2021/03/20 14:20:45;;;;;;;11.73;7.12;;;;;;;2.96;49.19;101219.44;2108923;84;33986;-64
2021/03/20 14:23:56;;;;;;;6.42;4.08;;;;;;;2.91;49.51;101222.07;2108984;84;28870;-63
2021/03/20 14:27:03;;;;;;;8.45;4.30;;;;;;;2.81;48.53;101218.59;2097237;84;27978;-76
2021/03/20 14:30:09;;;;;;;8.50;4.40;;;;;;;2.76;48.99;101208.46;2157832;81;29712;-58
2021/03/20 14:33:20;;;;;;;7.45;3.45;;;;;;;2.76;48.72;101206.23;2156956;82;32248;-64
2021/03/20 14:36:28;;;;;;;5.97;3.72;;;;;;;2.77;47.95;101204.03;2158285;82;34014;-58
2021/03/20 14:39:38;;;;;;;5.12;3.17;;;;;;;2.68;46.83;101204.51;2157421;82;28971;-61
2021/03/20 14:42:48;;;;;;;6.58;3.52;;;;;;;2.53;47.17;101197.47;2157352;82;27988;-60
2021/03/20 14:45:59;;;;;;;8.53;4.58;;;;;;;2.41;47.14;101192.21;2157490;82;29771;-58
2021/03/20 14:49:11;;;;;;;10.03;4.62;;;;;;;2.34;47.01;101193.98;2157112;82;31210;-58
2021/03/20 14:52:19;;;;;;;6.75;4.25;;;;;;;2.29;47.00;101197.06;2157403;82;33953;-57
2021/03/20 14:55:24;;;;;;;6.50;3.75;;;;;;;2.23;47.23;101185.20;2157495;82;29807;-62
2021/03/20 14:58:32;;;;;;;6.42;3.10;;;;;;;2.24;47.93;101185.61;2157534;82;28029;-59
2021/03/20 15:01:39;;;;;;;7.67;3.75;;;;;;;2.26;46.88;101181.20;2157366;82;28816;-59
2021/03/20 15:04:44;;;;;;;6.37;4.00;;;;;;;2.24;47.54;101183.86;2157388;82;32145;-59
2021/03/20 15:07:51;;;;;;;;;;;;;;;2.23;47.62;101181.23;2159833;82;33122;-58
2021/03/20 15:11:01;;;;;;;8.45;4.40;;;;;;;2.21;47.65;101175.92;2158279;82;28852;-60
2021/03/20 15:14:15;;;;;;;12.25;6.90;;;;;;;2.16;47.59;101179.00;2159012;82;27890;-62
2021/03/20 15:17:33;;;;;;;6.72;4.55;;;;;;;2.07;47.57;101177.70;2150892;82;29812;-63
2021/03/20 15:20:41;;;;;;;14.40;7.22;;;;;;;1.98;48.10;101171.97;2150882;82;31153;-63
2021/03/20 15:23:50;;;;;;;16.80;6.60;;;;;;;1.88;48.10;101165.80;2150713;81;33947;-60
2021/03/20 15:26:56;;;;;;;12.95;5.67;;;;;;;1.84;48.48;101169.31;2151156;82;28016;-62
2021/03/20 15:30:09;;;;;;;12.13;7.20;;;;;;;1.82;48.55;101163.18;2151101;81;27974;-62
2021/03/20 15:33:15;;;;;;;10.50;5.30;;;;;;;1.79;48.38;101164.50;2152010;82;28829;-59
2021/03/20 15:36:22;;;;;;;11.03;5.78;;;;;;;1.72;47.94;101164.03;2150820;81;31147;-60